NCAR-RAP Real-Time Weather Data

Output produced by METARs form (17 January 2018  22:28 UTC)
found at http://weather.rap.ucar.edu/surface/
 
Conditions at: KMCO observed 17 January 2018  21:53 UTC
Temperature: 16.7°C (62°F)
Dewpoint: 7.8°C (46°F) [RH = 56%]
Pressure (altimeter): 30.20 inches Hg (1022.8 mb)
[Sea-level pressure: 1022.7 mb]
Winds: from the W (280 degrees) at 20 MPH (17 knots; 8.8 m/s)
gusting to 28 MPH (24 knots; 12.5 m/s)
Visibility: 10 or more miles (16+ km)
Ceiling: at least 12,000 feet AGL
Clouds: few clouds at 0 feet AGL
few clouds at 5500 feet AGL
few clouds at 6500 feet AGL
scattered clouds at 25000 feet AGL
Present Weather: no significant weather observed at this time
KMCO 172153Z 28017G24KT 10SM FEW000 FEW055 FEW065 SCT250 17/08 A3020 RMK AO2 SLP227 FU FEW000 T01670078

Conditions at: KMCO observed 17 January 2018  20:53 UTC
Temperature: 21.1°C (70°F)
Dewpoint: 7.8°C (46°F) [RH = 42%]
Pressure (altimeter): 30.16 inches Hg (1021.4 mb)
[Sea-level pressure: 1021.4 mb]
Winds: from the NW (310 degrees) at 15 MPH (13 knots; 6.8 m/s)
Visibility: 10 or more miles (16+ km)
Ceiling: at least 12,000 feet AGL
Clouds: scattered clouds at 5500 feet AGL
scattered clouds at 25000 feet AGL
Present Weather: no significant weather observed at this time
KMCO 172053Z 31013KT 10SM SCT055 SCT250 21/08 A3016 RMK AO2 SLP214 T02110078 56016

Conditions at: KMCO observed 17 January 2018  19:53 UTC
Temperature: 20.6°C (69°F)
Dewpoint: 7.8°C (46°F) [RH = 44%]
Pressure (altimeter): 30.17 inches Hg (1021.8 mb)
[Sea-level pressure: 1021.6 mb]
Winds: from the W (280 degrees) at 10 MPH (9 knots; 4.7 m/s)
Visibility: 10 or more miles (16+ km)
Ceiling: 6500 feet AGL
Clouds: few clouds at 5500 feet AGL
broken clouds at 6500 feet AGL
broken clouds at 25000 feet AGL
Present Weather: no significant weather observed at this time
KMCO 171953Z 28009KT 10SM FEW055 BKN065 BKN250 21/08 A3017 RMK AO2 SLP216 T02060078

Conditions at: KMCO observed 17 January 2018  18:53 UTC
Temperature: 21.1°C (70°F)
Dewpoint: 7.2°C (45°F) [RH = 41%]
Pressure (altimeter): 30.18 inches Hg (1022.1 mb)
[Sea-level pressure: 1021.8 mb]
Winds: from the W (260 degrees) at 15 MPH (13 knots; 6.8 m/s)
Visibility: 10 or more miles (16+ km)
Ceiling: at least 12,000 feet AGL
Clouds: few clouds at 4000 feet AGL
few clouds at 25000 feet AGL
Present Weather: no significant weather observed at this time
KMCO 171853Z 26013KT 10SM FEW040 FEW250 21/07 A3018 RMK AO2 SLP218 T02110072

Conditions at: KMCO observed 17 January 2018  17:53 UTC
Temperature: 20.6°C (69°F)
Dewpoint: 7.2°C (45°F) [RH = 42%]
Pressure (altimeter): 30.21 inches Hg (1023.1 mb)
[Sea-level pressure: 1023.0 mb]
Winds: from the WNW (300 degrees) at 13 MPH (11 knots; 5.7 m/s)
Visibility: 10 or more miles (16+ km)
Ceiling: at least 12,000 feet AGL
Clouds: few clouds at 25000 feet AGL
Present Weather: no significant weather observed at this time
KMCO 171753Z 30011KT 10SM FEW250 21/07 A3021 RMK AO2 SLP230 T02060072 10206 20083 58020

Conditions at: KMCO observed 17 January 2018  16:53 UTC
Temperature: 20.0°C (68°F)
Dewpoint: 6.7°C (44°F) [RH = 42%]
Pressure (altimeter): 30.25 inches Hg (1024.5 mb)
[Sea-level pressure: 1024.3 mb]
Winds: from the WNW (290 degrees) at 15 MPH (13 knots; 6.8 m/s)
Visibility: 10 or more miles (16+ km)
Ceiling: at least 12,000 feet AGL
Clouds: few clouds at 25000 feet AGL
Present Weather: no significant weather observed at this time
KMCO 171653Z 29013KT 10SM FEW250 20/07 A3025 RMK AO2 SLP243 T02000067

Conditions at: KMCO observed 17 January 2018  15:53 UTC
Temperature: 17.8°C (64°F)
Dewpoint: 9.4°C (49°F) [RH = 58%]
Pressure (altimeter): 30.26 inches Hg (1024.8 mb)
[Sea-level pressure: 1024.8 mb]
Winds: from the NW (320 degrees) at 5 MPH (4 knots; 2.1 m/s)
Visibility: 10 or more miles (16+ km)
Ceiling: at least 12,000 feet AGL
Clouds: scattered clouds at 25000 feet AGL
Present Weather: no significant weather observed at this time
KMCO 171553Z 32004KT 10SM SCT250 18/09 A3026 RMK AO2 SLP248 T01780094

Conditions at: KMCO observed 17 January 2018  14:53 UTC
Temperature: 15.6°C (60°F)
Dewpoint: 10.0°C (50°F) [RH = 69%]
Pressure (altimeter): 30.27 inches Hg (1025.1 mb)
[Sea-level pressure: 1025.0 mb]
Winds: from the NNW (340 degrees) at 3 MPH (3 knots; 1.6 m/s)
Visibility: 10 or more miles (16+ km)
Ceiling: at least 12,000 feet AGL
Clouds: scattered clouds at 25000 feet AGL
Present Weather: no significant weather observed at this time
KMCO 171453Z 34003KT 10SM SCT250 16/10 A3027 RMK AO2 SLP250 T01560100 51006

Conditions at: KMCO observed 17 January 2018  13:53 UTC
Temperature: 12.2°C (54°F)
Dewpoint: 10.0°C (50°F) [RH = 86%]
Pressure (altimeter): 30.26 inches Hg (1024.8 mb)
[Sea-level pressure: 1024.7 mb]
Winds: from the N (350 degrees) at 3 MPH (3 knots; 1.6 m/s)
Visibility: 10 or more miles (16+ km)
Ceiling: at least 12,000 feet AGL
Clouds: scattered clouds at 25000 feet AGL
Present Weather: no significant weather observed at this time
KMCO 171353Z 35003KT 10SM SCT250 12/10 A3026 RMK AO2 SLP247 T01220100

Conditions at: KMCO observed 17 January 2018  12:53 UTC
Temperature: 10.0°C (50°F)
Dewpoint: 9.4°C (49°F) [RH = 96%]
Pressure (altimeter): 30.26 inches Hg (1024.8 mb)
[Sea-level pressure: 1024.7 mb]
Winds: calm
Visibility: 10 or more miles (16+ km)
Ceiling: at least 12,000 feet AGL
Clouds: few clouds at 3500 feet AGL
few clouds at 25000 feet AGL
Present Weather: no significant weather observed at this time
KMCO 171253Z 00000KT 10SM FEW035 FEW250 10/09 A3026 RMK AO2 SLP247 T01000094

Conditions at: KMCO observed 17 January 2018  11:53 UTC
Temperature: 8.9°C (48°F)
Dewpoint: 8.3°C (47°F) [RH = 96%]
Pressure (altimeter): 30.25 inches Hg (1024.5 mb)
[Sea-level pressure: 1024.3 mb]
Winds: from the NW (310 degrees) at 3 MPH (3 knots; 1.6 m/s)
Visibility: 10 or more miles (16+ km)
Ceiling: at least 12,000 feet AGL
Clouds: few clouds at 3000 feet AGL
few clouds at 25000 feet AGL
Present Weather: no significant weather observed at this time
KMCO 171153Z 31003KT 10SM FEW030 FEW250 09/08 A3025 RMK AO2 SLP243 T00890083 10100 20089 53007

Conditions at: KMCO observed 17 January 2018  10:53 UTC
Temperature: 9.4°C (49°F)
Dewpoint: 8.9°C (48°F) [RH = 97%]
Pressure (altimeter): 30.24 inches Hg (1024.1 mb)
[Sea-level pressure: 1023.9 mb]
Winds: from the NW (310 degrees) at 6 MPH (5 knots; 2.6 m/s)
Visibility: 10 or more miles (16+ km)
Ceiling: at least 12,000 feet AGL
Clouds: few clouds at 25000 feet AGL
Present Weather: no significant weather observed at this time
KMCO 171053Z 31005KT 10SM FEW250 09/09 A3024 RMK AO2 SLP239 T00940089

Conditions at: KMCO observed 17 January 2018  09:53 UTC
Temperature: 8.9°C (48°F)
Dewpoint: 8.9°C (48°F) [RH = 100%]
Pressure (altimeter): 30.23 inches Hg (1023.8 mb)
[Sea-level pressure: 1023.6 mb]
Winds: from the N (360 degrees) at 6 MPH (5 knots; 2.6 m/s)
Visibility: 10 or more miles (16+ km)
Ceiling: at least 12,000 feet AGL
Clouds: sky clear below 12,000 feet AGL
Present Weather: no significant weather observed at this time
KMCO 170953Z 36005KT 10SM CLR 09/09 A3023 RMK AO2 SLP236 T00890089

Conditions at: KMCO observed 17 January 2018  08:53 UTC
Temperature: 8.9°C (48°F)
Dewpoint: 8.9°C (48°F) [RH = 100%]
Pressure (altimeter): 30.23 inches Hg (1023.8 mb)
[Sea-level pressure: 1023.7 mb]
Winds: from the N (360 degrees) at 6 MPH (5 knots; 2.6 m/s)
Visibility: 10 or more miles (16+ km)
Ceiling: at least 12,000 feet AGL
Clouds: sky clear below 12,000 feet AGL
Present Weather: no significant weather observed at this time
KMCO 170853Z 36005KT 10SM CLR 09/09 A3023 RMK AO2 SLP237 T00890089 56012

Conditions at: KMCO observed 17 January 2018  07:53 UTC
Temperature: 9.4°C (49°F)
Dewpoint: 9.4°C (49°F) [RH = 100%]
Pressure (altimeter): 30.24 inches Hg (1024.1 mb)
[Sea-level pressure: 1023.9 mb]
Winds: from the N (360 degrees) at 6 MPH (5 knots; 2.6 m/s)
Visibility: 10 or more miles (16+ km)
Ceiling: at least 12,000 feet AGL
Clouds: few clouds at 25000 feet AGL
Present Weather: no significant weather observed at this time
KMCO 170753Z 36005KT 10SM FEW250 09/09 A3024 RMK AO2 SLP239 T00940094

Conditions at: KMCO observed 17 January 2018  06:53 UTC
Temperature: 10.0°C (50°F)
Dewpoint: 10.0°C (50°F) [RH = 100%]
Pressure (altimeter): 30.25 inches Hg (1024.5 mb)
[Sea-level pressure: 1024.4 mb]
Winds: from the NNW (340 degrees) at 6 MPH (5 knots; 2.6 m/s)
Visibility: 10 or more miles (16+ km)
Ceiling: at least 12,000 feet AGL
Clouds: sky clear below 12,000 feet AGL
Present Weather: no significant weather observed at this time
KMCO 170653Z 34005KT 10SM CLR 10/10 A3025 RMK AO2 SLP244 T01000100

Conditions at: KMCO observed 17 January 2018  05:53 UTC
Temperature: 10.0°C (50°F)
Dewpoint: 10.0°C (50°F) [RH = 100%]
Pressure (altimeter): 30.27 inches Hg (1025.1 mb)
[Sea-level pressure: 1024.9 mb]
Winds: from the N (350 degrees) at 6 MPH (5 knots; 2.6 m/s)
Visibility: 10 or more miles (16+ km)
Ceiling: at least 12,000 feet AGL
Clouds: few clouds at 25000 feet AGL
Present Weather: no significant weather observed at this time
KMCO 170553Z 35005KT 10SM FEW250 10/10 A3027 RMK AO2 SLP249 T01000100 10156 20100 58014

Conditions at: KMCO observed 17 January 2018  04:53 UTC
Temperature: 10.6°C (51°F)
Dewpoint: 10.0°C (50°F) [RH = 96%]
Pressure (altimeter): 30.29 inches Hg (1025.8 mb)
[Sea-level pressure: 1025.5 mb]
Winds: from the N (350 degrees) at 6 MPH (5 knots; 2.6 m/s)
Visibility: 10 or more miles (16+ km)
Ceiling: at least 12,000 feet AGL
Clouds: few clouds at 25000 feet AGL
Present Weather: no significant weather observed at this time
KMCO 170453Z 35005KT 10SM FEW250 11/10 A3029 RMK AO2 SLP255 T01060100 402280072

Conditions at: KMCO observed 17 January 2018  03:53 UTC
Temperature: 11.7°C (53°F)
Dewpoint: 10.6°C (51°F) [RH = 93%]
Pressure (altimeter): 30.30 inches Hg (1026.2 mb)
[Sea-level pressure: 1026.0 mb]
Winds: from the NNE (20 degrees) at 6 MPH (5 knots; 2.6 m/s)
Visibility: 10 or more miles (16+ km)
Ceiling: at least 12,000 feet AGL
Clouds: few clouds at 25000 feet AGL
Present Weather: no significant weather observed at this time
KMCO 170353Z 02005KT 10SM FEW250 12/11 A3030 RMK AO2 SLP260 T01170106

Conditions at: KMCO observed 17 January 2018  02:53 UTC
Temperature: 11.7°C (53°F)
Dewpoint: 10.6°C (51°F) [RH = 93%]
Pressure (altimeter): 30.31 inches Hg (1026.5 mb)
[Sea-level pressure: 1026.3 mb]
Winds: from the N (360 degrees) at 3 MPH (3 knots; 1.6 m/s)
Visibility: 10 or more miles (16+ km)
Ceiling: at least 12,000 feet AGL
Clouds: scattered clouds at 25000 feet AGL
Present Weather: no significant weather observed at this time
KMCO 170253Z 36003KT 10SM SCT250 12/11 A3031 RMK AO2 SLP263 T01170106 51007

Conditions at: KMCO observed 17 January 2018  01:53 UTC
Temperature: 12.8°C (55°F)
Dewpoint: 11.1°C (52°F) [RH = 89%]
Pressure (altimeter): 30.30 inches Hg (1026.2 mb)
[Sea-level pressure: 1026.1 mb]
Winds: from the NNE (30 degrees) at 5 MPH (4 knots; 2.1 m/s)
Visibility: 10 or more miles (16+ km)
Ceiling: 25000 feet AGL
Clouds: broken clouds at 25000 feet AGL
Present Weather: no significant weather observed at this time
KMCO 170153Z 03004KT 10SM BKN250 13/11 A3030 RMK AO2 SLP261 T01280111

Conditions at: KMCO observed 17 January 2018  00:53 UTC
Temperature: 13.9°C (57°F)
Dewpoint: 11.1°C (52°F) [RH = 83%]
Pressure (altimeter): 30.31 inches Hg (1026.5 mb)
[Sea-level pressure: 1026.3 mb]
Winds: from the NNE (20 degrees) at 10 MPH (9 knots; 4.7 m/s)
Visibility: 10 or more miles (16+ km)
Ceiling: at least 12,000 feet AGL
Clouds: scattered clouds at 25000 feet AGL
Present Weather: no significant weather observed at this time
KMCO 170053Z 02009KT 10SM SCT250 14/11 A3031 RMK AO2 SLP263 T01390111

Conditions at: KMCO observed 16 January 2018  23:53 UTC
Temperature: 15.6°C (60°F)
Dewpoint: 11.1°C (52°F) [RH = 75%]
Pressure (altimeter): 30.29 inches Hg (1025.8 mb)
[Sea-level pressure: 1025.6 mb]
Winds: from the NE (40 degrees) at 9 MPH (8 knots; 4.2 m/s)
Visibility: 10 or more miles (16+ km)
Ceiling: 25000 feet AGL
Clouds: few clouds at 6500 feet AGL
broken clouds at 25000 feet AGL
Present Weather: no significant weather observed at this time
KMCO 162353Z 04008KT 10SM FEW065 BKN250 16/11 A3029 RMK AO2 SLP256 T01560111 10228 20156 51004

Conditions at: KMCO observed 16 January 2018  22:53 UTC
Temperature: 17.8°C (64°F)
Dewpoint: 10.6°C (51°F) [RH = 63%]
Pressure (altimeter): 30.29 inches Hg (1025.8 mb)
[Sea-level pressure: 1025.6 mb]
Winds: from the NE (40 degrees) at 12 MPH (10 knots; 5.2 m/s)
Visibility: 10 or more miles (16+ km)
Ceiling: 25000 feet AGL
Clouds: few clouds at 6500 feet AGL
broken clouds at 25000 feet AGL
Present Weather: no significant weather observed at this time
KMCO 162253Z 04010KT 10SM FEW065 BKN250 18/11 A3029 RMK AO2 SLP256 T01780106

Conditions at: KMCO observed 16 January 2018  21:53 UTC
Temperature: 19.4°C (67°F)
Dewpoint: 8.3°C (47°F) [RH = 49%]
Pressure (altimeter): 30.28 inches Hg (1025.5 mb)
[Sea-level pressure: 1025.3 mb]
Winds: from the NNE (30 degrees) at 13 MPH (11 knots; 5.7 m/s)
Visibility: 10 or more miles (16+ km)
Ceiling: 6000 feet AGL
Clouds: scattered clouds at 4900 feet AGL
broken clouds at 6000 feet AGL
broken clouds at 25000 feet AGL
Present Weather: no significant weather observed at this time
KMCO 162153Z 03011KT 10SM SCT049 BKN060 BKN250 19/08 A3028 RMK AO2 SLP253 T01940083

Conditions at: KMCO observed 16 January 2018  20:53 UTC
Temperature: 20.0°C (68°F)
Dewpoint: 8.3°C (47°F) [RH = 47%]
Pressure (altimeter): 30.28 inches Hg (1025.5 mb)
[Sea-level pressure: 1025.2 mb]
Winds: from the N (10 degrees) at 12 MPH (10 knots; 5.2 m/s)
Visibility: 10 or more miles (16+ km)
Ceiling: at least 12,000 feet AGL
Clouds: scattered clouds at 5500 feet AGL
scattered clouds at 6500 feet AGL
scattered clouds at 25000 feet AGL
Present Weather: no significant weather observed at this time
KMCO 162053Z 01010KT 10SM SCT055 SCT065 SCT250 20/08 A3028 RMK AO2 SLP252 T02000083 55018

Conditions at: KMCO observed 16 January 2018  19:53 UTC
Temperature: 22.2°C (72°F)
Dewpoint: 7.2°C (45°F) [RH = 38%]
Pressure (altimeter): 30.27 inches Hg (1025.1 mb)
[Sea-level pressure: 1025.1 mb]
Winds: from the NE (50 degrees) at 7 MPH (6 knots; 3.1 m/s)
Visibility: 10 or more miles (16+ km)
Ceiling: 25000 feet AGL
Clouds: scattered clouds at 6500 feet AGL
broken clouds at 25000 feet AGL
Present Weather: no significant weather observed at this time
KMCO 161953Z 05006KT 10SM SCT065 BKN250 22/07 A3027 RMK AO2 SLP251 T02220072

Conditions at: KMCO observed 16 January 2018  18:53 UTC
Temperature: 20.6°C (69°F)
Dewpoint: 7.8°C (46°F) [RH = 44%]
Pressure (altimeter): 30.30 inches Hg (1026.2 mb)
[Sea-level pressure: 1025.9 mb]
Winds: from the NE (40 degrees) at 10 MPH (9 knots; 4.7 m/s)
Visibility: 8 miles (13 km)
Ceiling: at least 12,000 feet AGL
Clouds: scattered clouds at 5500 feet AGL
scattered clouds at 25000 feet AGL
Present Weather: no significant weather observed at this time
KMCO 161853Z 04009KT 8SM SCT055 SCT250 21/08 A3030 RMK AO2 SLP259 T02060078

Conditions at: KMCO observed 16 January 2018  18:02 UTC
Temperature: 21.1°C (70°F)
Dewpoint: 8.9°C (48°F) [RH = 46%]
Pressure (altimeter): 30.32 inches Hg (1026.8 mb)
Winds: from the NE (40 degrees) at 10 MPH (9 knots; 4.7 m/s)
Visibility: 8 miles (13 km)
Ceiling: at least 12,000 feet AGL
Clouds: few clouds at 900 feet AGL
scattered clouds at 4400 feet AGL
scattered clouds at 25000 feet AGL
Present Weather: no significant weather observed at this time
KMCO 161802Z 04009KT 8SM FEW009 SCT044 SCT250 21/09 A3032 RMK AO2 FU FEW009 T02110089

Conditions at: KMCO observed 16 January 2018  17:53 UTC
Temperature: 20.6°C (69°F)
Dewpoint: 9.4°C (49°F) [RH = 49%]
Pressure (altimeter): 30.33 inches Hg (1027.2 mb)
[Sea-level pressure: 1027.0 mb]
Winds: from the E (80 degrees) at 8 MPH (7 knots; 3.6 m/s)
Visibility: 10 or more miles (16+ km)
Ceiling: at least 12,000 feet AGL
Clouds: scattered clouds at 4400 feet AGL
scattered clouds at 25000 feet AGL
Present Weather: no significant weather observed at this time
KMCO 161753Z 08007KT 10SM SCT044 SCT250 21/09 A3033 RMK AO2 SLP270 T02060094 10211 20083 58020

Conditions at: KMCO observed 16 January 2018  16:53 UTC
Temperature: 20.6°C (69°F)
Dewpoint: 10.0°C (50°F) [RH = 51%]
Pressure (altimeter): 30.36 inches Hg (1028.2 mb)
[Sea-level pressure: 1027.9 mb]
Winds: from the NNE (30 degrees) at 12 MPH (10 knots; 5.2 m/s)
Visibility: 10 or more miles (16+ km)
Ceiling: at least 12,000 feet AGL
Clouds: few clouds at 4000 feet AGL
few clouds at 25000 feet AGL
Present Weather: no significant weather observed at this time
KMCO 161653Z 03010KT 10SM FEW040 FEW250 21/10 A3036 RMK AO2 SLP279 T02060100

Conditions at: KMCO observed 16 January 2018  15:53 UTC
Temperature: 18.9°C (66°F)
Dewpoint: 10.0°C (50°F) [RH = 56%]
Pressure (altimeter): 30.39 inches Hg (1029.2 mb)
[Sea-level pressure: 1028.9 mb]
Winds: from the NE (40 degrees) at 8 MPH (7 knots; 3.6 m/s)
Visibility: 10 or more miles (16+ km)
Ceiling: at least 12,000 feet AGL
Clouds: few clouds at 25000 feet AGL
Present Weather: no significant weather observed at this time
KMCO 161553Z 04007KT 10SM FEW250 19/10 A3039 RMK AO2 SLP289 T01890100

Conditions at: KMCO observed 16 January 2018  14:53 UTC
Temperature: 16.1°C (61°F)
Dewpoint: 10.0°C (50°F) [RH = 67%]
Pressure (altimeter): 30.39 inches Hg (1029.2 mb)
[Sea-level pressure: 1029.0 mb]
Winds: from the NNE (30 degrees) at 10 MPH (9 knots; 4.7 m/s)
Visibility: 10 or more miles (16+ km)
Ceiling: at least 12,000 feet AGL
Clouds: sky clear below 12,000 feet AGL
Present Weather: no significant weather observed at this time
KMCO 161453Z 03009KT 10SM CLR 16/10 A3039 RMK AO2 SLP290 T01610100 53011

Conditions at: KMCO observed 16 January 2018  13:53 UTC
Temperature: 12.2°C (54°F)
Dewpoint: 9.4°C (49°F) [RH = 83%]
Pressure (altimeter): 30.37 inches Hg (1028.5 mb)
[Sea-level pressure: 1028.3 mb]
Winds: from the N (10 degrees) at 10 MPH (9 knots; 4.7 m/s)
Visibility: 10 or more miles (16+ km)
Ceiling: at least 12,000 feet AGL
Clouds: sky clear below 12,000 feet AGL
Present Weather: no significant weather observed at this time
KMCO 161353Z 01009KT 10SM CLR 12/09 A3037 RMK AO2 SLP283 T01220094

Conditions at: KMCO observed 16 January 2018  12:53 UTC
Temperature: 8.9°C (48°F)
Dewpoint: 8.3°C (47°F) [RH = 96%]
Pressure (altimeter): 30.36 inches Hg (1028.2 mb)
[Sea-level pressure: 1028.1 mb]
Winds: from the N (350 degrees) at 7 MPH (6 knots; 3.1 m/s)
Visibility: 10 or more miles (16+ km)
Ceiling: at least 12,000 feet AGL
Clouds: few clouds at 5000 feet AGL
Present Weather: no significant weather observed at this time
KMCO 161253Z 35006KT 10SM FEW050 09/08 A3036 RMK AO2 SLP281 T00890083

Conditions at: KMCO observed 16 January 2018  11:53 UTC
Temperature: 8.3°C (47°F)
Dewpoint: 7.8°C (46°F) [RH = 97%]
Pressure (altimeter): 30.36 inches Hg (1028.2 mb)
[Sea-level pressure: 1027.9 mb]
Winds: from the N (350 degrees) at 8 MPH (7 knots; 3.6 m/s)
Visibility: 10 or more miles (16+ km)
Ceiling: at least 12,000 feet AGL
Clouds: few clouds at 3000 feet AGL
Present Weather: no significant weather observed at this time
KMCO 161153Z 35007KT 10SM FEW030 08/08 A3036 RMK AO2 SLP279 T00830078 10089 20072 53008

Conditions at: KMCO observed 16 January 2018  10:53 UTC
Temperature: 8.3°C (47°F)
Dewpoint: 7.8°C (46°F) [RH = 97%]
Pressure (altimeter): 30.34 inches Hg (1027.5 mb)
[Sea-level pressure: 1027.3 mb]
Winds: from the N (350 degrees) at 8 MPH (7 knots; 3.6 m/s)
Visibility: 10 or more miles (16+ km)
Ceiling: at least 12,000 feet AGL
Clouds: sky clear below 12,000 feet AGL
Present Weather: no significant weather observed at this time
KMCO 161053Z 35007KT 10SM CLR 08/08 A3034 RMK AO2 SLP273 T00830078

Conditions at: KMCO observed 16 January 2018  09:53 UTC
Temperature: 7.8°C (46°F)
Dewpoint: 7.2°C (45°F) [RH = 96%]
Pressure (altimeter): 30.33 inches Hg (1027.2 mb)
[Sea-level pressure: 1026.9 mb]
Winds: from the N (360 degrees) at 7 MPH (6 knots; 3.1 m/s)
Visibility: 10 or more miles (16+ km)
Ceiling: at least 12,000 feet AGL
Clouds: few clouds at 7000 feet AGL
Present Weather: no significant weather observed at this time
KMCO 160953Z 36006KT 10SM FEW070 08/07 A3033 RMK AO2 SLP269 T00780072

Conditions at: KMCO observed 16 January 2018  08:53 UTC
Temperature: 8.9°C (48°F)
Dewpoint: 7.8°C (46°F) [RH = 93%]
Pressure (altimeter): 30.33 inches Hg (1027.2 mb)
[Sea-level pressure: 1027.1 mb]
Winds: from the N (350 degrees) at 8 MPH (7 knots; 3.6 m/s)
Visibility: 10 or more miles (16+ km)
Ceiling: 7000 feet AGL
Clouds: broken clouds at 7000 feet AGL
Present Weather: no significant weather observed at this time
KMCO 160853Z 35007KT 10SM BKN070 09/08 A3033 RMK AO2 SLP271 T00890078 55006

Conditions at: KMCO observed 16 January 2018  07:53 UTC
Temperature: 7.2°C (45°F)
Dewpoint: 6.7°C (44°F) [RH = 97%]
Pressure (altimeter): 30.33 inches Hg (1027.2 mb)
[Sea-level pressure: 1026.9 mb]
Winds: from the N (350 degrees) at 7 MPH (6 knots; 3.1 m/s)
Visibility: 10 or more miles (16+ km)
Ceiling: at least 12,000 feet AGL
Clouds: few clouds at 6500 feet AGL
Present Weather: no significant weather observed at this time
KMCO 160753Z 35006KT 10SM FEW065 07/07 A3033 RMK AO2 SLP269 T00720067

Conditions at: KMCO observed 16 January 2018  06:53 UTC
Temperature: 7.8°C (46°F)
Dewpoint: 6.7°C (44°F) [RH = 93%]
Pressure (altimeter): 30.34 inches Hg (1027.5 mb)
[Sea-level pressure: 1027.2 mb]
Winds: from the N (360 degrees) at 7 MPH (6 knots; 3.1 m/s)
Visibility: 10 or more miles (16+ km)
Ceiling: at least 12,000 feet AGL
Clouds: few clouds at 6500 feet AGL
Present Weather: no significant weather observed at this time
KMCO 160653Z 36006KT 10SM FEW065 08/07 A3034 RMK AO2 SLP272 T00780067

Conditions at: KMCO observed 16 January 2018  05:53 UTC
Temperature: 7.8°C (46°F)
Dewpoint: 6.7°C (44°F) [RH = 93%]
Pressure (altimeter): 30.35 inches Hg (1027.9 mb)
[Sea-level pressure: 1027.6 mb]
Winds: from the N (360 degrees) at 10 MPH (9 knots; 4.7 m/s)
Visibility: 10 or more miles (16+ km)
Ceiling: at least 12,000 feet AGL
Clouds: sky clear below 12,000 feet AGL
Present Weather: no significant weather observed at this time
KMCO 160553Z 36009KT 10SM CLR 08/07 A3035 RMK AO2 SLP276 T00780067 10111 20078 56011

Conditions at: KMCO observed 16 January 2018  04:53 UTC
Temperature: 7.8°C (46°F)
Dewpoint: 6.1°C (43°F) [RH = 89%]
Pressure (altimeter): 30.36 inches Hg (1028.2 mb)
[Sea-level pressure: 1027.9 mb]
Winds: from the N (360 degrees) at 10 MPH (9 knots; 4.7 m/s)
Visibility: 10 or more miles (16+ km)
Ceiling: at least 12,000 feet AGL
Clouds: sky clear below 12,000 feet AGL
Present Weather: no significant weather observed at this time
KMCO 160453Z 36009KT 10SM CLR 08/06 A3036 RMK AO2 SLP279 T00780061 401890072

Conditions at: KMCO observed 16 January 2018  03:53 UTC
Temperature: 7.8°C (46°F)
Dewpoint: 6.1°C (43°F) [RH = 89%]
Pressure (altimeter): 30.37 inches Hg (1028.5 mb)
[Sea-level pressure: 1028.3 mb]
Winds: from the N (360 degrees) at 12 MPH (10 knots; 5.2 m/s)
Visibility: 10 or more miles (16+ km)
Ceiling: at least 12,000 feet AGL
Clouds: sky clear below 12,000 feet AGL
Present Weather: no significant weather observed at this time
KMCO 160353Z 36010KT 10SM CLR 08/06 A3037 RMK AO2 SLP283 T00780061

Conditions at: KMCO observed 16 January 2018  02:53 UTC
Temperature: 8.3°C (47°F)
Dewpoint: 5.6°C (42°F) [RH = 83%]
Pressure (altimeter): 30.38 inches Hg (1028.9 mb)
[Sea-level pressure: 1028.7 mb]
Winds: from the N (10 degrees) at 12 MPH (10 knots; 5.2 m/s)
Visibility: 10 or more miles (16+ km)
Ceiling: at least 12,000 feet AGL
Clouds: sky clear below 12,000 feet AGL
Present Weather: no significant weather observed at this time
KMCO 160253Z 01010KT 10SM CLR 08/06 A3038 RMK AO2 SLP287 T00830056 51007

Conditions at: KMCO observed 16 January 2018  01:53 UTC
Temperature: 8.9°C (48°F)
Dewpoint: 5.6°C (42°F) [RH = 80%]
Pressure (altimeter): 30.38 inches Hg (1028.9 mb)
[Sea-level pressure: 1028.7 mb]
Winds: from the N (360 degrees) at 10 MPH (9 knots; 4.7 m/s)
Visibility: 10 or more miles (16+ km)
Ceiling: at least 12,000 feet AGL
Clouds: few clouds at 7500 feet AGL
Present Weather: no significant weather observed at this time
KMCO 160153Z 36009KT 10SM FEW075 09/06 A3038 RMK AO2 SLP287 T00890056

Conditions at: KMCO observed 16 January 2018  00:53 UTC
Temperature: 10.0°C (50°F)
Dewpoint: 6.1°C (43°F) [RH = 77%]
Pressure (altimeter): 30.37 inches Hg (1028.5 mb)
[Sea-level pressure: 1028.2 mb]
Winds: from the NNE (20 degrees) at 14 MPH (12 knots; 6.2 m/s)
Visibility: 10 or more miles (16+ km)
Ceiling: at least 12,000 feet AGL
Clouds: few clouds at 6500 feet AGL
few clouds at 7500 feet AGL
Present Weather: no significant weather observed at this time
KMCO 160053Z 02012KT 10SM FEW065 FEW075 10/06 A3037 RMK AO2 SLP282 T01000061

Conditions at: KMCO observed 15 January 2018  23:53 UTC
Temperature: 11.1°C (52°F)
Dewpoint: 6.1°C (43°F) [RH = 71%]
Pressure (altimeter): 30.36 inches Hg (1028.2 mb)
[Sea-level pressure: 1028.1 mb]
Winds: from the NNE (30 degrees) at 16 MPH (14 knots; 7.3 m/s)
Visibility: 10 or more miles (16+ km)
Ceiling: at least 12,000 feet AGL
Clouds: scattered clouds at 7500 feet AGL
Present Weather: no significant weather observed at this time
KMCO 152353Z 03014KT 10SM SCT075 11/06 A3036 RMK AO2 SLP281 T01110061 10189 20111 53019

Conditions at: KMCO observed 15 January 2018  22:53 UTC
Temperature: 12.8°C (55°F)
Dewpoint: 5.6°C (42°F) [RH = 62%]
Pressure (altimeter): 30.34 inches Hg (1027.5 mb)
[Sea-level pressure: 1027.3 mb]
Winds: from the NNE (30 degrees) at 17 MPH (15 knots; 7.8 m/s)
Visibility: 10 or more miles (16+ km)
Ceiling: at least 12,000 feet AGL
Clouds: few clouds at 7000 feet AGL
few clouds at 25000 feet AGL
Present Weather: no significant weather observed at this time
KMCO 152253Z 03015KT 10SM FEW070 FEW250 13/06 A3034 RMK AO2 SLP273 T01280056